createdAt,value
2018-08-07T00:01:36.688Z,2.43
2018-08-07T00:04:04.864Z,1.73
2018-08-07T00:06:32.947Z,1.60
2018-08-07T00:09:01.037Z,1.80
2018-08-07T00:11:29.140Z,2.47
2018-08-07T00:13:57.244Z,4.20
2018-08-07T00:16:25.341Z,2.03
2018-08-07T00:18:53.427Z,1.70
2018-08-07T00:21:21.536Z,2.80
2018-08-07T00:23:49.608Z,2.00
2018-08-07T00:26:17.690Z,1.37
2018-08-07T00:28:45.828Z,2.00
2018-08-07T00:31:13.912Z,1.50
2018-08-07T00:33:42.012Z,2.50
2018-08-07T00:36:10.104Z,1.50
2018-08-07T00:38:38.234Z,1.50
2018-08-07T00:41:06.426Z,2.63
2018-08-07T00:43:34.589Z,1.53
2018-08-07T00:46:02.698Z,2.20
2018-08-07T00:48:30.806Z,2.20
2018-08-07T00:50:58.921Z,2.00
2018-08-07T00:53:27.066Z,1.60
2018-08-07T00:55:55.254Z,6.20
2018-08-07T00:58:23.401Z,1.83
2018-08-07T01:00:51.534Z,1.83
2018-08-07T01:03:19.624Z,2.03
2018-08-07T01:05:47.751Z,3.30
2018-08-07T01:08:15.807Z,1.70
2018-08-07T01:10:43.899Z,2.00
2018-08-07T01:13:12.036Z,3.10
2018-08-07T01:15:40.160Z,1.67
2018-08-07T01:18:08.252Z,2.40
2018-08-07T01:20:36.358Z,2.13
2018-08-07T01:23:04.444Z,1.83
2018-08-07T01:25:32.544Z,1.90
2018-08-07T01:28:00.656Z,1.93
2018-08-07T01:30:29.722Z,2.00
2018-08-07T01:32:57.872Z,3.63
2018-08-07T01:35:27.114Z,2.20
2018-08-07T01:37:55.207Z,1.90
2018-08-07T01:40:23.340Z,2.10
2018-08-07T01:42:51.450Z,1.70
2018-08-07T01:45:19.560Z,1.80
2018-08-07T01:47:47.649Z,1.80
2018-08-07T01:50:16.356Z,1.97
2018-08-07T01:52:44.435Z,3.20
2018-08-07T01:55:18.618Z,1.90
2018-08-07T01:57:46.709Z,1.57
2018-08-07T02:00:14.751Z,2.10
2018-08-07T02:02:42.858Z,1.60
2018-08-07T02:05:12.460Z,1.70
2018-08-07T02:07:41.256Z,2.33
2018-08-07T02:10:12.406Z,1.87
2018-08-07T02:12:40.572Z,1.83
2018-08-07T02:15:09.814Z,1.87
2018-08-07T02:17:37.923Z,3.40
2018-08-07T02:20:07.979Z,1.77
2018-08-07T02:22:36.085Z,2.37
2018-08-07T02:25:05.544Z,3.30
2018-08-07T02:27:33.681Z,1.93
2018-08-07T02:30:01.768Z,2.00
2018-08-07T02:32:29.845Z,2.23
2018-08-07T02:34:58.062Z,1.77
2018-08-07T02:37:26.179Z,2.40
2018-08-07T02:39:54.220Z,4.40
2018-08-07T02:42:22.338Z,2.77
2018-08-07T02:44:50.449Z,1.63
2018-08-07T02:47:18.523Z,1.73
2018-08-07T02:49:46.657Z,3.00
2018-08-07T02:52:14.772Z,1.70
2018-08-07T02:54:42.836Z,2.53
2018-08-07T02:57:10.923Z,2.27
2018-08-07T02:59:39.085Z,2.03
2018-08-07T03:02:07.628Z,2.87
2018-08-07T03:04:35.793Z,2.20
2018-08-07T03:07:04.117Z,1.80
2018-08-07T03:09:32.254Z,1.60
2018-08-07T03:12:00.372Z,2.13
2018-08-07T03:14:28.458Z,4.50
2018-08-07T03:16:56.584Z,2.57
2018-08-07T03:19:25.142Z,2.30
2018-08-07T03:21:53.256Z,1.73
2018-08-07T03:24:21.319Z,1.77
2018-08-07T03:26:49.593Z,3.47
2018-08-07T03:29:17.785Z,1.67
2018-08-07T03:31:45.929Z,3.10
2018-08-07T03:34:14.076Z,3.90
2018-08-07T03:36:42.196Z,2.70
2018-08-07T03:39:12.341Z,2.40
2018-08-07T03:41:40.639Z,2.27
2018-08-07T03:44:09.112Z,3.47
2018-08-07T03:46:37.223Z,2.13
2018-08-07T03:49:05.531Z,3.20
2018-08-07T03:51:33.687Z,2.33
2018-08-07T03:54:01.750Z,2.60
2018-08-07T03:56:29.940Z,2.67
2018-08-07T03:58:58.377Z,2.43
2018-08-07T04:01:26.703Z,2.30
2018-08-07T04:03:55.380Z,2.20
2018-08-07T04:06:23.511Z,2.83
2018-08-07T04:08:51.665Z,2.70
2018-08-07T04:11:19.910Z,2.57
2018-08-07T04:13:48.036Z,2.80
2018-08-07T04:16:16.136Z,2.20
2018-08-07T04:18:44.257Z,1.87
2018-08-07T04:21:12.412Z,2.23
2018-08-07T04:23:40.512Z,2.40
2018-08-07T04:26:08.708Z,3.53
2018-08-07T04:28:36.791Z,1.97
2018-08-07T04:31:04.725Z,3.10
2018-08-07T04:33:33.005Z,2.37
2018-08-07T04:36:01.096Z,2.53
2018-08-07T04:38:29.184Z,4.27
2018-08-07T04:40:57.251Z,4.27
2018-08-07T04:43:25.344Z,2.60
2018-08-07T04:45:53.500Z,2.33
2018-08-07T04:48:21.333Z,1.53
2018-08-07T04:50:49.422Z,4.40
2018-08-07T04:53:17.580Z,2.37
2018-08-07T04:55:45.732Z,2.30
2018-08-07T04:58:13.939Z,2.43
2018-08-07T05:00:42.072Z,3.50
2018-08-07T05:03:10.472Z,3.63
2018-08-07T05:05:38.773Z,3.20
2018-08-07T05:08:06.996Z,4.33
2018-08-07T05:10:35.259Z,2.93
2018-08-07T05:13:03.275Z,4.60
2018-08-07T05:15:31.357Z,2.53
2018-08-07T05:17:59.471Z,2.60
2018-08-07T05:20:27.685Z,4.00
2018-08-07T05:22:55.862Z,3.17
2018-08-07T05:25:24.053Z,3.33
2018-08-07T05:27:52.164Z,2.70
2018-08-07T05:30:20.318Z,3.20
2018-08-07T05:32:48.462Z,2.10
2018-08-07T05:35:16.644Z,3.10
2018-08-07T05:37:44.818Z,2.50
2018-08-07T05:40:12.933Z,5.43
2018-08-07T05:42:41.426Z,1.97
2018-08-07T05:45:11.544Z,3.50
2018-08-07T05:47:39.783Z,2.73
2018-08-07T05:50:11.366Z,2.90
2018-08-07T05:52:39.457Z,2.43
2018-08-07T05:55:07.735Z,3.43
2018-08-07T05:57:35.804Z,2.40
2018-08-07T06:00:07.559Z,2.20
2018-08-07T06:02:35.718Z,1.83
2018-08-07T06:05:03.828Z,4.23
2018-08-07T06:07:31.895Z,3.87
2018-08-07T06:10:00.077Z,3.10
2018-08-07T06:12:28.164Z,5.27
2018-08-07T06:14:56.306Z,5.97
2018-08-07T06:17:24.489Z,3.80
2018-08-07T06:19:52.597Z,3.10
2018-08-07T06:22:20.528Z,2.43
2018-08-07T06:24:48.648Z,2.20
2018-08-07T06:27:16.539Z,2.30
2018-08-07T06:29:44.667Z,2.53
2018-08-07T06:32:12.823Z,3.57
2018-08-07T06:34:40.890Z,2.47
2018-08-07T06:37:09.028Z,2.30
2018-08-07T06:39:37.139Z,2.83
2018-08-07T06:42:05.428Z,2.50
2018-08-07T06:44:33.575Z,2.63
2018-08-07T06:47:01.647Z,2.50
2018-08-07T06:49:29.827Z,2.20
2018-08-07T06:51:57.968Z,3.07
2018-08-07T06:54:26.068Z,5.10
2018-08-07T06:56:54.209Z,5.10
2018-08-07T06:59:22.350Z,2.53
2018-08-07T07:01:50.521Z,2.83
2018-08-07T07:04:18.622Z,2.53
2018-08-07T07:06:46.718Z,3.03
2018-08-07T07:09:14.845Z,4.10
2018-08-07T07:11:43.021Z,3.70
2018-08-07T07:14:11.125Z,2.37
2018-08-07T07:16:39.277Z,2.50
2018-08-07T07:19:07.465Z,2.43
2018-08-07T07:21:35.605Z,2.60
2018-08-07T07:24:03.789Z,3.20
2018-08-07T07:26:31.923Z,3.00
2018-08-07T07:29:00.028Z,4.00
2018-08-07T07:31:28.146Z,2.37
2018-08-07T07:33:56.318Z,2.20
2018-08-07T07:36:24.482Z,2.43
2018-08-07T07:38:53.588Z,2.40
2018-08-07T07:41:21.693Z,3.00
2018-08-07T07:43:49.828Z,4.93
2018-08-07T07:46:18.011Z,2.63
2018-08-07T07:48:46.210Z,3.43
2018-08-07T07:51:14.505Z,2.40
2018-08-07T07:53:42.708Z,2.43
2018-08-07T07:56:10.837Z,2.60
2018-08-07T07:58:38.985Z,2.00
2018-08-07T08:01:07.175Z,2.47
2018-08-07T08:03:35.513Z,3.37
2018-08-07T08:06:03.720Z,4.30
2018-08-07T08:08:32.781Z,2.47
2018-08-07T08:11:01.327Z,4.10
2018-08-07T08:13:29.496Z,2.87
2018-08-07T08:15:57.591Z,2.50
2018-08-07T08:18:25.719Z,4.80
2018-08-07T08:20:53.890Z,6.10
2018-08-07T08:23:21.984Z,3.30
2018-08-07T08:25:50.098Z,3.73
2018-08-07T08:28:18.160Z,3.50
2018-08-07T08:30:46.244Z,3.20
2018-08-07T08:33:14.344Z,3.00
2018-08-07T08:35:42.387Z,4.13
2018-08-07T08:38:10.489Z,2.23
2018-08-07T08:40:38.656Z,3.83
2018-08-07T08:43:06.810Z,3.00
2018-08-07T08:45:34.946Z,3.07
2018-08-07T08:48:03.122Z,3.10
2018-08-07T08:50:31.187Z,2.20
2018-08-07T08:52:59.390Z,2.50
2018-08-07T08:55:27.637Z,3.13
2018-08-07T08:57:55.688Z,3.60
2018-08-07T09:00:25.921Z,4.43
2018-08-07T09:02:55.057Z,5.00
2018-08-07T09:05:23.260Z,2.33
2018-08-07T09:07:51.360Z,2.30
2018-08-07T09:10:29.322Z,2.20
2018-08-07T09:12:58.229Z,2.70
2018-08-07T09:15:26.396Z,2.50
2018-08-07T09:17:54.524Z,2.40
2018-08-07T09:20:24.615Z,3.13
2018-08-07T09:22:52.756Z,2.60
2018-08-07T09:25:21.821Z,2.80
2018-08-07T09:27:50.027Z,2.80
2018-08-07T09:30:22.150Z,2.27
2018-08-07T09:32:51.092Z,2.30
2018-08-07T09:35:20.105Z,2.40
2018-08-07T09:37:48.292Z,6.67
2018-08-07T09:40:17.637Z,2.43
2018-08-07T09:42:47.284Z,2.13
2018-08-07T09:45:18.061Z,2.70
2018-08-07T09:47:46.678Z,2.63
2018-08-07T09:50:16.280Z,3.83
2018-08-07T09:52:44.795Z,2.47
2018-08-07T09:55:12.915Z,2.00
2018-08-07T09:57:41.242Z,2.40
2018-08-07T10:00:19.919Z,4.90
2018-08-07T10:02:50.616Z,2.60
2018-08-07T10:05:19.950Z,2.30
2018-08-07T10:07:48.540Z,2.57
2018-08-07T10:10:17.491Z,3.80
2018-08-07T10:12:46.059Z,2.20
2018-08-07T10:15:14.722Z,3.47
2018-08-07T10:17:42.880Z,3.07
2018-08-07T10:20:11.353Z,2.37
2018-08-07T10:22:40.288Z,2.63
2018-08-07T10:25:11.653Z,2.27
2018-08-07T10:27:41.418Z,2.83
2018-08-07T10:30:12.608Z,2.60
2018-08-07T10:32:41.312Z,1.87
2018-08-07T10:35:10.992Z,3.40
2018-08-07T10:37:39.147Z,3.00
2018-08-07T10:40:09.464Z,2.60
2018-08-07T10:42:37.596Z,3.00
2018-08-07T10:45:07.166Z,2.30
2018-08-07T10:47:35.231Z,2.70
2018-08-07T10:50:04.540Z,2.30
2018-08-07T10:52:32.617Z,4.27
2018-08-07T10:55:00.746Z,2.27
2018-08-07T10:57:28.860Z,2.60
2018-08-07T10:59:56.986Z,3.17
2018-08-07T11:02:25.119Z,2.57
2018-08-07T11:04:53.155Z,2.27
2018-08-07T11:07:21.334Z,2.03
2018-08-07T11:09:49.552Z,2.47
2018-08-07T11:12:17.684Z,2.20
2018-08-07T11:14:45.801Z,2.13
2018-08-07T11:17:13.928Z,2.50
2018-08-07T11:19:41.985Z,2.57
2018-08-07T11:22:10.416Z,2.60
2018-08-07T11:24:38.566Z,3.70
2018-08-07T11:27:06.675Z,2.83
2018-08-07T11:29:34.790Z,2.57
2018-08-07T11:32:02.926Z,2.17
2018-08-07T11:34:31.076Z,2.27
2018-08-07T11:36:59.241Z,1.70
2018-08-07T11:39:27.315Z,2.40
2018-08-07T11:41:55.453Z,4.27
2018-08-07T11:44:23.562Z,2.97
2018-08-07T11:46:51.639Z,2.33
2018-08-07T11:49:19.787Z,2.33
2018-08-07T11:51:47.950Z,2.00
2018-08-07T11:54:16.049Z,2.50
2018-08-07T11:56:44.194Z,2.03
2018-08-07T11:59:15.356Z,2.70
2018-08-07T12:01:43.499Z,2.50
2018-08-07T12:04:11.607Z,3.10
2018-08-07T12:06:39.689Z,2.50
2018-08-07T12:09:09.295Z,2.33
2018-08-07T12:11:37.588Z,2.17
2018-08-07T12:14:05.869Z,2.50
2018-08-07T12:16:34.007Z,3.30
2018-08-07T12:19:02.274Z,4.33
2018-08-07T12:21:30.710Z,2.10
2018-08-07T12:23:58.792Z,2.43
2018-08-07T12:26:27.000Z,2.70
2018-08-07T12:28:55.108Z,2.30
2018-08-07T12:31:23.228Z,6.10
2018-08-07T12:33:51.352Z,2.30
2018-08-07T12:36:19.435Z,3.20
2018-08-07T12:38:47.548Z,2.47
2018-08-07T12:41:15.732Z,3.40
2018-08-07T12:43:43.837Z,3.23
2018-08-07T12:46:11.937Z,2.50
2018-08-07T12:48:40.056Z,2.30
2018-08-07T12:51:08.206Z,2.30
2018-08-07T12:53:36.289Z,2.80
2018-08-07T12:56:04.402Z,3.20
2018-08-07T12:58:32.529Z,2.43
2018-08-07T13:01:00.624Z,3.73
2018-08-07T13:03:28.835Z,3.23
2018-08-07T13:05:56.917Z,2.10
2018-08-07T13:08:24.810Z,2.37
2018-08-07T13:10:52.858Z,3.70
2018-08-07T13:13:20.833Z,2.30
2018-08-07T13:15:48.934Z,2.30
2018-08-07T13:18:18.721Z,2.60
2018-08-07T13:20:46.863Z,3.10
2018-08-07T13:23:15.046Z,2.70
2018-08-07T13:25:43.210Z,4.73
2018-08-07T13:28:11.317Z,2.87
2018-08-07T13:30:40.018Z,2.60
2018-08-07T13:33:08.132Z,3.30
2018-08-07T13:35:36.230Z,2.97
2018-08-07T13:38:04.311Z,2.87
2018-08-07T13:40:32.453Z,3.77
2018-08-07T13:43:00.542Z,2.27
2018-08-07T13:45:28.701Z,2.37
2018-08-07T13:47:56.764Z,2.90
2018-08-07T13:50:25.332Z,2.17
2018-08-07T13:52:53.652Z,2.43
2018-08-07T13:55:22.917Z,3.27
2018-08-07T13:57:51.102Z,2.93
2018-08-07T14:00:21.207Z,3.13
2018-08-07T14:02:49.967Z,3.83
2018-08-07T14:05:19.076Z,2.77
2018-08-07T14:07:48.115Z,5.67
2018-08-07T14:10:17.046Z,2.73
2018-08-07T14:12:45.200Z,2.93
2018-08-07T14:15:14.901Z,2.70
2018-08-07T14:17:43.813Z,3.50
2018-08-07T14:20:12.971Z,3.23
2018-08-07T14:22:41.094Z,2.70
2018-08-07T14:25:26.812Z,3.20
2018-08-07T14:27:55.035Z,2.93
2018-08-07T14:30:27.316Z,2.93
2018-08-07T14:32:55.387Z,3.20
2018-08-07T14:35:24.232Z,3.27
2018-08-07T14:37:52.317Z,4.53
2018-08-07T14:40:22.825Z,2.87
2018-08-07T14:42:51.359Z,2.90
2018-08-07T14:45:20.869Z,2.90
2018-08-07T14:47:49.893Z,2.10
2018-08-07T14:50:19.555Z,3.80
2018-08-07T14:52:47.654Z,2.67
2018-08-07T14:55:15.757Z,3.40
2018-08-07T14:57:43.897Z,3.07
2018-08-07T15:00:14.334Z,3.23
2018-08-07T15:02:42.465Z,3.90
2018-08-07T15:05:10.568Z,2.23
2018-08-07T15:07:38.811Z,3.20
2018-08-07T15:10:10.451Z,3.90
2018-08-07T15:12:39.646Z,3.00
2018-08-07T15:15:11.737Z,3.60
2018-08-07T15:17:39.917Z,2.90
2018-08-07T15:20:09.584Z,3.60
2018-08-07T15:22:38.132Z,3.30
2018-08-07T15:25:08.777Z,4.40
2018-08-07T15:27:36.974Z,3.30
2018-08-07T15:30:06.454Z,3.03
2018-08-07T15:32:34.693Z,3.07
2018-08-07T15:35:02.858Z,3.10
2018-08-07T15:37:30.984Z,3.23
2018-08-07T15:39:59.104Z,2.80
2018-08-07T15:42:27.158Z,2.93
2018-08-07T15:44:55.337Z,2.87
2018-08-07T15:47:23.523Z,3.00
2018-08-07T15:49:51.668Z,2.90
2018-08-07T15:52:20.225Z,4.93
2018-08-07T15:54:48.395Z,5.37
2018-08-07T15:57:16.531Z,2.73
2018-08-07T15:59:44.686Z,3.03
2018-08-07T16:02:12.776Z,5.30
2018-08-07T16:04:40.898Z,9.30
2018-08-07T16:07:08.992Z,2.43
2018-08-07T16:09:37.147Z,4.00
2018-08-07T16:12:05.941Z,2.40
2018-08-07T16:14:34.078Z,3.67
2018-08-07T16:17:02.253Z,3.40
2018-08-07T16:19:30.402Z,3.13
2018-08-07T16:21:58.489Z,2.70
2018-08-07T16:24:26.537Z,2.80
2018-08-07T16:26:54.645Z,2.40
2018-08-07T16:29:22.728Z,4.53
2018-08-07T16:31:50.965Z,2.60
2018-08-07T16:34:19.144Z,3.57
2018-08-07T16:36:47.212Z,2.97
2018-08-07T16:39:15.418Z,3.60
2018-08-07T16:41:43.609Z,2.63
2018-08-07T16:44:11.692Z,2.50
2018-08-07T16:46:39.799Z,2.83
2018-08-07T16:49:07.910Z,2.50
2018-08-07T16:51:35.802Z,4.83
2018-08-07T16:54:04.151Z,4.30
2018-08-07T16:56:32.366Z,3.70
2018-08-07T16:59:00.479Z,3.13
2018-08-07T17:01:28.539Z,2.73
2018-08-07T17:03:56.665Z,4.00
2018-08-07T17:06:24.824Z,2.67
2018-08-07T17:08:52.932Z,2.57
2018-08-07T17:11:21.112Z,2.80
2018-08-07T17:13:49.109Z,2.93
2018-08-07T17:16:17.206Z,3.00
2018-08-07T17:18:45.427Z,3.87
2018-08-07T17:21:13.533Z,3.50
2018-08-07T17:23:41.635Z,3.00
2018-08-07T17:26:09.720Z,3.47
2018-08-07T17:28:37.886Z,4.03
2018-08-07T17:31:06.156Z,3.03
2018-08-07T17:33:34.255Z,3.40
2018-08-07T17:36:02.424Z,3.60
2018-08-07T17:38:30.484Z,3.37
2018-08-07T17:40:58.527Z,3.50
2018-08-07T17:43:26.605Z,3.17
2018-08-07T17:45:54.691Z,3.67
2018-08-07T17:48:22.777Z,3.17
2018-08-07T17:50:50.826Z,3.17
2018-08-07T17:53:18.967Z,3.43
2018-08-07T17:55:47.052Z,3.30
2018-08-07T17:58:15.111Z,3.53
2018-08-07T18:00:43.253Z,3.50
2018-08-07T18:03:11.315Z,5.03
2018-08-07T18:05:39.426Z,3.37
2018-08-07T18:08:07.593Z,3.40
2018-08-07T18:10:35.680Z,3.90
2018-08-07T18:13:03.739Z,3.67
2018-08-07T18:15:31.824Z,4.60
2018-08-07T18:17:59.905Z,4.33
2018-08-07T18:20:28.252Z,4.70
2018-08-07T18:22:56.362Z,3.80
2018-08-07T18:25:24.452Z,3.83
2018-08-07T18:27:52.525Z,3.47
2018-08-07T18:30:23.187Z,3.43
2018-08-07T18:32:51.392Z,4.10
2018-08-07T18:35:21.796Z,4.63
2018-08-07T18:37:50.135Z,3.37
2018-08-07T18:40:18.238Z,3.90
2018-08-07T18:42:46.376Z,4.60
2018-08-07T18:45:14.856Z,4.23
2018-08-07T18:47:43.734Z,4.00
2018-08-07T18:50:13.279Z,3.80
2018-08-07T18:52:41.315Z,4.40
2018-08-07T18:55:12.168Z,4.10
2018-08-07T18:57:41.022Z,3.60
2018-08-07T19:00:11.894Z,4.20
2018-08-07T19:02:40.352Z,4.27
2018-08-07T19:05:09.538Z,4.77
2018-08-07T19:07:38.422Z,3.93
2018-08-07T19:10:06.780Z,4.53
2018-08-07T19:12:34.811Z,6.83
2018-08-07T19:15:02.942Z,4.70
2018-08-07T19:17:31.031Z,4.67
2018-08-07T19:20:00.166Z,4.63
2018-08-07T19:22:28.410Z,5.20
2018-08-07T19:24:56.720Z,4.57
2018-08-07T19:27:25.096Z,4.40
2018-08-07T19:29:53.311Z,4.50
2018-08-07T19:32:21.512Z,4.90
2018-08-07T19:34:49.709Z,5.50
2018-08-07T19:37:17.929Z,4.20
2018-08-07T19:39:46.069Z,4.60
2018-08-07T19:42:14.205Z,5.57
2018-08-07T19:44:42.259Z,4.60
2018-08-07T19:47:10.479Z,5.33
2018-08-07T19:49:38.592Z,5.90
2018-08-07T19:52:06.950Z,5.20
2018-08-07T19:54:35.125Z,6.70
2018-08-07T19:57:03.187Z,5.40
2018-08-07T19:59:31.293Z,5.97
2018-08-07T20:01:59.500Z,6.97
2018-08-07T20:04:27.636Z,5.80
2018-08-07T20:06:55.742Z,5.43
2018-08-07T20:09:23.975Z,5.23
2018-08-07T20:11:52.140Z,5.47
2018-08-07T20:14:20.225Z,5.73
2018-08-07T20:16:48.407Z,5.57
2018-08-07T20:19:16.628Z,5.40
2018-08-07T20:21:44.745Z,5.50
2018-08-07T20:24:12.875Z,9.13
2018-08-07T20:26:40.977Z,4.70
2018-08-07T20:29:09.067Z,5.27
2018-08-07T20:31:37.269Z,4.90
2018-08-07T20:34:05.454Z,5.83
2018-08-07T20:36:33.617Z,4.70
2018-08-07T20:39:01.672Z,5.30
2018-08-07T20:41:29.830Z,5.37
2018-08-07T20:43:57.995Z,4.90
2018-08-07T20:46:26.297Z,5.53
2018-08-07T20:48:54.504Z,4.77
2018-08-07T20:51:22.689Z,5.23
2018-08-07T20:53:50.830Z,5.30
2018-08-07T20:56:18.953Z,5.43
2018-08-07T20:58:47.068Z,4.80
2018-08-07T21:01:15.230Z,5.03
2018-08-07T21:04:46.485Z,4.70
2018-08-07T21:07:14.682Z,5.50
2018-08-07T21:09:42.731Z,5.57
2018-08-07T21:12:10.951Z,5.67
2018-08-07T21:14:39.038Z,5.20
2018-08-07T21:17:07.124Z,5.37
2018-08-07T21:19:35.244Z,5.40
2018-08-07T21:22:03.328Z,5.17
2018-08-07T21:24:31.400Z,4.70
2018-08-07T21:26:59.517Z,4.90
2018-08-07T21:29:27.574Z,4.70
2018-08-07T21:31:55.627Z,4.60
2018-08-07T21:34:23.740Z,4.87
2018-08-07T21:36:51.805Z,5.57
2018-08-07T21:39:19.899Z,5.23
2018-08-07T21:41:48.045Z,4.97
2018-08-07T21:44:16.136Z,5.30
2018-08-07T21:46:44.285Z,5.53
2018-08-07T21:49:12.392Z,5.10
2018-08-07T21:51:40.449Z,4.90
2018-08-07T21:54:08.528Z,5.47
2018-08-07T21:56:36.636Z,5.83
2018-08-07T21:59:07.828Z,5.20
2018-08-07T22:01:35.913Z,5.73
2018-08-07T22:04:03.984Z,5.57
2018-08-07T22:07:13.738Z,5.00
2018-08-07T22:09:41.800Z,5.53
2018-08-07T22:12:09.910Z,5.40
2018-08-07T22:14:38.029Z,5.70
2018-08-07T22:17:06.107Z,5.77
2018-08-07T22:19:34.255Z,4.30
2018-08-07T22:22:02.436Z,5.23
2018-08-07T22:24:30.568Z,5.20
2018-08-07T22:26:58.619Z,6.03
2018-08-07T22:29:26.700Z,5.27
2018-08-07T22:31:54.781Z,6.13
2018-08-07T22:34:22.869Z,5.27
2018-08-07T22:36:50.910Z,5.10
2018-08-07T22:39:19.005Z,4.90
2018-08-07T22:41:47.092Z,4.83
2018-08-07T22:44:15.176Z,5.60
2018-08-07T22:46:43.268Z,5.43
2018-08-07T22:49:11.327Z,5.90
2018-08-07T22:51:39.375Z,5.33
2018-08-07T22:54:07.512Z,5.80
2018-08-07T22:56:35.569Z,5.27
2018-08-07T22:59:03.677Z,6.03
2018-08-07T23:01:31.833Z,5.57
2018-08-07T23:03:59.920Z,6.53
2018-08-07T23:06:28.004Z,5.50
2018-08-07T23:08:56.104Z,5.10
2018-08-07T23:11:24.221Z,6.17
2018-08-07T23:13:52.349Z,5.63
2018-08-07T23:16:20.447Z,5.50
2018-08-07T23:18:48.560Z,5.30
2018-08-07T23:21:16.651Z,5.63
2018-08-07T23:23:44.698Z,5.47
2018-08-07T23:26:12.739Z,6.10
2018-08-07T23:28:40.795Z,6.07
2018-08-07T23:31:08.874Z,6.27
2018-08-07T23:33:36.927Z,5.70
2018-08-07T23:36:04.967Z,5.97
2018-08-07T23:38:33.071Z,5.67
2018-08-07T23:41:01.140Z,5.30
2018-08-07T23:43:29.184Z,5.70
2018-08-07T23:45:57.267Z,4.83
2018-08-07T23:48:25.322Z,5.97
2018-08-07T23:50:53.380Z,5.60
2018-08-07T23:53:21.493Z,5.40
2018-08-07T23:55:49.555Z,5.53
2018-08-07T23:58:17.677Z,5.67
